SKW6468 KCRP-KDFW
Flight info
| Callsign | SKW6468 |
|---|---|
| Flight time | N/A |
| Altitude | 16000 |
| Route | ATHIS CARTI T499 SAT/N0473F350 GUTZZ BOOVE7 |
| Aircraft | CRJ7/M-SDFGIRWY/S |
Departure
| Time | 2026-04-25 12:18 |
|---|---|
| Airport | Corpus Christi International Airport (KCRP) |
Arrival
| Time | N/A |
|---|---|
| Airport | Dallas Fort Worth International Airport (KDFW) |
| Time | Latitude | Longitude | Altitude | Speed | Heading |
|---|---|---|---|---|---|
| 2026-04-25 11:40 | 27.77379 | -97.50298 | 52 ft | 0 kts | 81° |
| 2026-04-25 12:01 | 27.77380 | -97.50299 | 43 ft | 1 kts | 86° |
| 2026-04-25 12:01 | 27.77379 | -97.50317 | 48 ft | 3 kts | 86° |
| 2026-04-25 12:02 | 27.77382 | -97.50343 | 47 ft | 3 kts | 162° |
| 2026-04-25 12:02 | 27.77368 | -97.50349 | 52 ft | 3 kts | 211° |
| 2026-04-25 12:02 | 27.77350 | -97.50360 | 52 ft | 3 kts | 205° |
| 2026-04-25 12:03 | 27.77331 | -97.50367 | 52 ft | 3 kts | 188° |
| 2026-04-25 12:03 | 27.77325 | -97.50367 | 52 ft | 0 kts | 178° |
| 2026-04-25 12:05 | 27.77323 | -97.50367 | 52 ft | 3 kts | 179° |
| 2026-04-25 12:05 | 27.77276 | -97.50393 | 49 ft | 12 kts | 236° |
| 2026-04-25 12:05 | 27.77251 | -97.50484 | 48 ft | 12 kts | 237° |
| 2026-04-25 12:05 | 27.77249 | -97.50563 | 50 ft | 11 kts | 313° |
| 2026-04-25 12:06 | 27.77308 | -97.50635 | 50 ft | 15 kts | 313° |
| 2026-04-25 12:06 | 27.77387 | -97.50728 | 52 ft | 18 kts | 315° |
| 2026-04-25 12:06 | 27.77486 | -97.50840 | 52 ft | 22 kts | 316° |
| 2026-04-25 12:06 | 27.77597 | -97.50960 | 51 ft | 22 kts | 316° |
| 2026-04-25 12:07 | 27.77708 | -97.51081 | 52 ft | 22 kts | 316° |
| 2026-04-25 12:07 | 27.77818 | -97.51201 | 52 ft | 22 kts | 316° |
| 2026-04-25 12:07 | 27.77929 | -97.51321 | 51 ft | 22 kts | 316° |
| 2026-04-25 12:07 | 27.77995 | -97.51405 | 51 ft | 11 kts | 285° |
| 2026-04-25 12:08 | 27.77959 | -97.51468 | 52 ft | 11 kts | 226° |
| 2026-04-25 12:08 | 27.77905 | -97.51530 | 48 ft | 8 kts | 226° |
| 2026-04-25 12:08 | 27.77870 | -97.51526 | 50 ft | 5 kts | 132° |
| 2026-04-25 12:08 | 27.77866 | -97.51521 | 50 ft | 0 kts | 134° |
| 2026-04-25 12:09 | 27.77845 | -97.51497 | 50 ft | 20 kts | 135° |
| 2026-04-25 12:09 | 27.77601 | -97.51231 | 48 ft | 77 kts | 136° |
| 2026-04-25 12:09 | 27.77113 | -97.50697 | 49 ft | 118 kts | 135° |
| 2026-04-25 12:09 | 27.76459 | -97.49989 | 55 ft | 139 kts | 136° |
| 2026-04-25 12:10 | 27.76054 | -97.49563 | 52 ft | 11 kts | 137° |
| 2026-04-25 12:10 | 27.76045 | -97.49548 | 47 ft | 1 kts | 89° |
| 2026-04-25 12:10 | 27.76055 | -97.49536 | 52 ft | 6 kts | 28° |
| 2026-04-25 12:10 | 27.76112 | -97.49548 | 52 ft | 6 kts | 321° |
| 2026-04-25 12:11 | 27.76148 | -97.49591 | 52 ft | 13 kts | 312° |
| 2026-04-25 12:11 | 27.76226 | -97.49694 | 52 ft | 18 kts | 310° |
| 2026-04-25 12:11 | 27.76311 | -97.49793 | 65 ft | 18 kts | 315° |
| 2026-04-25 12:11 | 27.76397 | -97.49891 | 61 ft | 12 kts | 315° |
| 2026-04-25 12:12 | 27.76467 | -97.49890 | 51 ft | 11 kts | 41° |
| 2026-04-25 12:12 | 27.76524 | -97.49833 | 52 ft | 11 kts | 26° |
| 2026-04-25 12:12 | 27.76587 | -97.49855 | 51 ft | 10 kts | 315° |
| 2026-04-25 12:12 | 27.76641 | -97.49913 | 52 ft | 11 kts | 315° |
| 2026-04-25 12:13 | 27.76698 | -97.49975 | 52 ft | 12 kts | 317° |
| 2026-04-25 12:13 | 27.76758 | -97.50042 | 46 ft | 13 kts | 316° |
| 2026-04-25 12:13 | 27.76823 | -97.50113 | 52 ft | 13 kts | 316° |
| 2026-04-25 12:13 | 27.76891 | -97.50188 | 52 ft | 14 kts | 316° |
| 2026-04-25 12:14 | 27.76963 | -97.50266 | 52 ft | 15 kts | 316° |
| 2026-04-25 12:14 | 27.77038 | -97.50348 | 52 ft | 15 kts | 316° |
| 2026-04-25 12:14 | 27.77118 | -97.50434 | 52 ft | 16 kts | 318° |
| 2026-04-25 12:14 | 27.77205 | -97.50517 | 52 ft | 17 kts | 318° |
| 2026-04-25 12:15 | 27.77287 | -97.50611 | 52 ft | 17 kts | 314° |
| 2026-04-25 12:15 | 27.77371 | -97.50710 | 49 ft | 18 kts | 314° |
| 2026-04-25 12:15 | 27.77459 | -97.50810 | 52 ft | 18 kts | 315° |
| 2026-04-25 12:15 | 27.77551 | -97.50911 | 52 ft | 19 kts | 316° |
| 2026-04-25 12:16 | 27.77647 | -97.51015 | 52 ft | 19 kts | 316° |
| 2026-04-25 12:16 | 27.77746 | -97.51121 | 52 ft | 20 kts | 315° |
| 2026-04-25 12:16 | 27.77846 | -97.51231 | 52 ft | 20 kts | 316° |
| 2026-04-25 12:16 | 27.77948 | -97.51343 | 52 ft | 21 kts | 316° |
| 2026-04-25 12:17 | 27.77991 | -97.51425 | 52 ft | 11 kts | 244° |
| 2026-04-25 12:17 | 27.77939 | -97.51491 | 48 ft | 12 kts | 226° |
| 2026-04-25 12:17 | 27.77876 | -97.51528 | 48 ft | 10 kts | 153° |
| 2026-04-25 12:17 | 27.77776 | -97.51422 | 47 ft | 42 kts | 136° |
| 2026-04-25 12:18 | 27.77359 | -97.50966 | 50 ft | 122 kts | 136° |
| 2026-04-25 12:18 | 27.76608 | -97.50159 | 253 ft | 164 kts | 136° |
| 2026-04-25 12:18 | 27.75797 | -97.49264 | 1066 ft | 162 kts | 134° |
| 2026-04-25 12:18 | 27.74987 | -97.48204 | 1369 ft | 198 kts | 132° |
| 2026-04-25 12:19 | 27.74540 | -97.45546 | 2565 ft | 225 kts | 73° |
| 2026-04-25 12:19 | 27.75903 | -97.43752 | 3732 ft | 234 kts | 27° |
| 2026-04-25 12:19 | 27.77482 | -97.43366 | 4611 ft | 236 kts | 354° |
| 2026-04-25 12:20 | 27.79010 | -97.43983 | 5465 ft | 236 kts | 327° |
| 2026-04-25 12:20 | 27.80271 | -97.45146 | 6389 ft | 232 kts | 313° |